Time;durP1;ratioP1;P1;durP2;ratioP2;P2;SDS_P1;SDS_P2;PMS_P1;PMS_P2;Temp;Humidity;BMP_temperature;BMP_pressure;BME280_temperature;BME280_humidity;BME280_pressure;Samples;Min_cycle;Max_cycle;Signal;HPM_P1;HPM_P2
2023/03/23 00:04:31;;;;;;;7.33;3.93;;;;;12.60;99760.00;;;;9733294;30;20293;-77
2023/03/23 00:09:34;;;;;;;5.17;3.83;;;;;12.60;99767.00;;;;9683357;30;20221;-78
2023/03/23 00:14:41;;;;;;;4.07;3.67;;;;;12.60;99748.00;;;;9697380;30;20605;-78
2023/03/23 00:19:47;;;;;;;4.43;3.50;;;;;12.60;99738.00;;;;9694982;30;20232;-77
2023/03/23 00:24:51;;;;;;;4.93;3.50;;;;;12.60;99730.00;;;;9724705;30;20198;-78
2023/03/23 00:29:52;;;;;;;4.60;3.50;;;;;12.60;99735.00;;;;9718926;30;20209;-78
2023/03/23 00:34:55;;;;;;;4.20;3.80;;;;;12.60;99737.00;;;;9708108;30;20438;-78
2023/03/23 00:39:57;;;;;;;4.97;3.80;;;;;12.60;99738.00;;;;9709903;30;20268;-78
2023/03/23 00:45:00;;;;;;;5.57;3.40;;;;;12.60;99732.00;;;;9693754;30;20659;-77
2023/03/23 00:50:05;;;;;;;6.57;3.90;;;;;12.60;99725.00;;;;9712275;30;20627;-78
2023/03/23 00:55:07;;;;;;;4.60;4.00;;;;;12.60;99747.00;;;;9737343;30;20222;-78
2023/03/23 01:00:11;;;;;;;5.30;4.00;;;;;12.60;99719.00;;;;9704135;30;20210;-78
2023/03/23 01:05:12;;;;;;;3.73;3.30;;;;;12.70;99747.00;;;;9706646;30;20295;-77
2023/03/23 01:10:17;;;;;;;4.43;3.40;;;;;12.70;99746.00;;;;9692381;30;20210;-78
2023/03/23 01:15:19;;;;;;;5.57;3.00;;;;;12.80;99752.00;;;;9706027;30;20214;-78
2023/03/23 01:20:20;;;;;;;3.87;3.37;;;;;12.80;99753.00;;;;9716980;30;20207;-78
2023/03/23 01:25:22;;;;;;;5.33;3.77;;;;;12.70;99756.00;;;;9709096;30;20210;-78
2023/03/23 01:30:23;;;;;;;4.00;3.17;;;;;12.80;99756.00;;;;9701218;30;20206;-77
2023/03/23 01:35:24;;;;;;;5.33;3.70;;;;;12.80;99742.00;;;;9722031;30;20687;-78
2023/03/23 01:40:28;;;;;;;4.03;3.27;;;;;12.80;99721.00;;;;9722376;30;20218;-78
2023/03/23 01:45:34;;;;;;;3.17;2.70;;;;;12.70;99707.00;;;;9739300;30;20194;-78
2023/03/23 01:50:41;;;;;;;4.73;3.83;;;;;12.70;99702.00;;;;9728004;30;20214;-78
2023/03/23 01:55:48;;;;;;;4.07;3.50;;;;;12.70;99700.00;;;;9704000;30;20237;-78
2023/03/23 02:00:49;;;;;;;5.53;2.80;;;;;12.70;99701.00;;;;9752115;30;20237;-77
2023/03/23 02:05:51;;;;;;;5.10;3.07;;;;;12.70;99702.00;;;;9749769;30;20202;-77
2023/03/23 02:11:01;;;;;;;8.30;3.50;;;;;12.70;99710.00;;;;9715790;30;20207;-77
2023/03/23 02:16:29;;;;;;;4.80;3.03;;;;;12.70;99714.00;;;;9701853;30;20693;-78
2023/03/23 02:22:24;;;;;;;4.60;3.20;;;;;12.70;99733.00;;;;9694703;30;20734;-78
2023/03/23 02:27:41;;;;;;;5.97;2.60;;;;;12.70;99711.00;;;;9611285;30;20203;-78
2023/03/23 02:33:09;;;;;;;4.73;2.53;;;;;12.70;99714.00;;;;9693846;30;20651;-77
2023/03/23 02:38:16;;;;;;;6.17;2.30;;;;;12.70;99705.00;;;;9726226;30;20213;-78
2023/03/23 02:43:21;;;;;;;5.17;2.20;;;;;12.70;99713.00;;;;9710033;30;20321;-77
2023/03/23 02:48:30;;;;;;;2.43;2.00;;;;;12.60;99724.00;;;;9712104;30;20203;-78
2023/03/23 02:53:36;;;;;;;5.47;1.87;;;;;12.60;99711.00;;;;9684089;30;20695;-77
2023/03/23 02:58:37;;;;;;;3.97;1.70;;;;;12.60;99721.00;;;;9666241;30;20600;-78
2023/03/23 03:03:38;;;;;;;9.30;2.90;;;;;12.60;99713.00;;;;9722761;30;20283;-78
2023/03/23 03:08:47;;;;;;;2.60;1.40;;;;;12.50;99712.00;;;;9685805;30;20293;-78
2023/03/23 03:14:17;;;;;;;5.93;1.50;;;;;12.60;99726.00;;;;9701877;30;20210;-77
2023/03/23 03:19:28;;;;;;;3.67;2.13;;;;;12.50;99717.00;;;;9713135;30;20212;-78
2023/03/23 03:24:30;;;;;;;1.73;1.03;;;;;12.50;99708.00;;;;9669036;30;20273;-77
2023/03/23 03:29:41;;;;;;;4.20;1.30;;;;;12.50;99706.00;;;;9686872;30;20679;-77
2023/03/23 03:34:42;;;;;;;4.53;1.20;;;;;12.60;99720.00;;;;9708037;30;20222;-77
2023/03/23 03:39:43;;;;;;;7.47;1.60;;;;;12.60;99717.00;;;;9720098;30;20218;-77
2023/03/23 03:44:45;;;;;;;3.33;1.70;;;;;12.60;99715.00;;;;9696575;30;20305;-78
2023/03/23 03:49:47;;;;;;;5.33;1.30;;;;;12.60;99716.00;;;;9712258;30;20219;-78
2023/03/23 03:54:48;;;;;;;4.13;1.47;;;;;12.70;99719.00;;;;9728041;30;20596;-77
2023/03/23 03:59:50;;;;;;;3.37;1.60;;;;;12.70;99720.00;;;;9682472;30;20230;-77
2023/03/23 04:05:11;;;;;;;3.87;1.90;;;;;12.60;99715.00;;;;9726854;30;20280;-77
2023/03/23 04:10:13;;;;;;;4.63;1.67;;;;;12.60;99730.00;;;;9700045;30;20214;-78
2023/03/23 04:15:16;;;;;;;5.17;1.90;;;;;12.70;99724.00;;;;9707171;30;20219;-77
2023/03/23 04:20:18;;;;;;;7.10;2.03;;;;;12.70;99725.00;;;;9703410;30;20577;-77
2023/03/23 04:25:23;;;;;;;3.90;1.90;;;;;12.70;99723.00;;;;9720618;30;20775;-78
2023/03/23 04:30:28;;;;;;;7.40;1.93;;;;;12.60;99738.00;;;;9708086;30;20210;-77
2023/03/23 04:35:45;;;;;;;6.70;1.70;;;;;12.50;99739.00;;;;9714356;30;20634;-78
2023/03/23 04:41:04;;;;;;;8.43;2.10;;;;;12.50;99757.00;;;;9716633;30;20365;-78
2023/03/23 04:46:38;;;;;;;4.97;1.77;;;;;12.50;99750.00;;;;9711913;30;20229;-77
2023/03/23 04:51:45;;;;;;;8.57;1.80;;;;;12.60;99743.00;;;;9723079;30;20260;-77
2023/03/23 04:57:05;;;;;;;4.03;1.67;;;;;12.50;99740.00;;;;9701818;30;20808;-77
2023/03/23 05:02:07;;;;;;;4.33;1.37;;;;;12.40;99743.00;;;;9721469;30;20195;-79
2023/03/23 05:07:11;;;;;;;3.50;1.50;;;;;12.30;99744.00;;;;9694195;30;20199;-80
2023/03/23 05:12:17;;;;;;;5.10;1.30;;;;;12.20;99749.00;;;;9710273;30;20217;-79
2023/03/23 05:17:40;;;;;;;7.20;1.97;;;;;12.20;99740.00;;;;9717686;30;20272;-79
2023/03/23 05:22:49;;;;;;;4.73;2.30;;;;;12.20;99744.00;;;;9679243;30;20210;-80
2023/03/23 05:27:53;;;;;;;5.87;1.50;;;;;12.30;99750.00;;;;9689619;30;20207;-79
2023/03/23 05:33:11;;;;;;;4.37;1.67;;;;;12.30;99750.00;;;;9712532;30;20245;-79
2023/03/23 05:38:25;;;;;;;4.30;1.50;;;;;12.30;99752.00;;;;9688676;30;20230;-79
2023/03/23 05:43:27;;;;;;;8.00;1.33;;;;;12.30;99755.00;;;;9715529;30;20210;-79
2023/03/23 05:48:54;;;;;;;8.10;1.67;;;;;12.20;99744.00;;;;9697950;30;20304;-79
2023/03/23 05:54:00;;;;;;;4.87;1.40;;;;;12.30;99765.00;;;;9699977;30;20841;-80
2023/03/23 05:59:03;;;;;;;7.00;1.90;;;;;12.30;99752.00;;;;9700457;30;20291;-79
2023/03/23 06:04:09;;;;;;;3.80;1.60;;;;;12.30;99755.00;;;;9717812;30;20198;-80
2023/03/23 06:09:19;;;;;;;6.53;1.70;;;;;12.30;99768.00;;;;9714416;30;20277;-80
2023/03/23 06:14:38;;;;;;;3.80;1.63;;;;;12.40;99764.00;;;;9719720;30;20293;-79
2023/03/23 06:19:41;;;;;;;2.73;1.73;;;;;12.50;99766.00;;;;9686901;30;20284;-80
2023/03/23 06:24:47;;;;;;;4.00;1.50;;;;;12.50;99778.00;;;;9694488;30;20202;-79
2023/03/23 06:29:55;;;;;;;7.03;1.93;;;;;12.60;99783.00;;;;9685717;30;20206;-79
2023/03/23 06:34:56;;;;;;;4.90;1.47;;;;;12.70;99795.00;;;;9712291;30;20221;-79
2023/03/23 06:40:18;;;;;;;5.43;1.43;;;;;12.80;99789.00;;;;9717776;30;20242;-79
2023/03/23 06:45:29;;;;;;;6.00;1.70;;;;;12.90;99788.00;;;;9718665;30;20199;-78
2023/03/23 06:50:51;;;;;;;3.17;1.70;;;;;12.90;99801.00;;;;9700556;30;20223;-78
2023/03/23 06:55:55;;;;;;;4.50;2.00;;;;;12.70;99829.00;;;;9694214;30;20321;-79
2023/03/23 07:00:58;;;;;;;9.17;2.33;;;;;12.20;99834.00;;;;9686552;30;20679;-79
2023/03/23 07:06:07;;;;;;;1.90;0.67;;;;;11.40;99863.00;;;;9712132;30;20203;-79
2023/03/23 07:11:12;;;;;;;4.33;0.93;;;;;10.40;99887.00;;;;9695285;30;20664;-78
2023/03/23 07:16:14;;;;;;;3.53;0.90;;;;;10.00;99886.00;;;;9712014;30;20234;-78
2023/03/23 07:21:16;;;;;;;1.97;0.80;;;;;9.70;99877.00;;;;9723603;30;20202;-79
2023/03/23 07:26:17;;;;;;;1.90;0.77;;;;;9.60;99882.00;;;;9685604;30;20240;-78
2023/03/23 07:31:26;;;;;;;6.13;0.60;;;;;9.40;99880.00;;;;9701327;30;20198;-79
2023/03/23 07:36:29;;;;;;;2.50;0.90;;;;;9.40;99864.00;;;;9700041;30;20214;-79
2023/03/23 07:41:30;;;;;;;2.50;0.73;;;;;9.40;99872.00;;;;9706007;30;20237;-78
2023/03/23 07:46:33;;;;;;;0.80;0.60;;;;;9.50;99883.00;;;;9706368;30;20214;-79
2023/03/23 07:51:49;;;;;;;3.23;1.00;;;;;9.80;99881.00;;;;9698605;30;20202;-78
2023/03/23 07:56:51;;;;;;;2.60;0.80;;;;;9.90;99893.00;;;;9719236;30;20237;-78
2023/03/23 08:01:58;;;;;;;3.13;1.20;;;;;10.20;99883.00;;;;9694814;30;20289;-79
2023/03/23 08:07:07;;;;;;;3.63;1.03;;;;;10.60;99871.00;;;;9693119;30;20206;-80
2023/03/23 08:12:24;;;;;;;4.30;1.50;;;;;11.00;99899.00;;;;9707654;30;20230;-80
2023/03/23 08:17:45;;;;;;;4.67;1.70;;;;;11.40;99916.00;;;;9720769;30;20218;-80
2023/03/23 08:23:07;;;;;;;1.77;1.33;;;;;11.40;99915.00;;;;9709510;30;20682;-80
2023/03/23 08:28:10;;;;;;;7.27;1.73;;;;;11.20;99922.00;;;;9698667;30;20206;-80
2023/03/23 08:33:30;;;;;;;2.20;0.90;;;;;11.00;99941.00;;;;9704683;30;20222;-80
2023/03/23 08:38:54;;;;;;;4.85;1.02;;;;;10.80;99933.00;;;;9662398;30;1104834;-79
2023/03/23 08:44:10;;;;;;;5.63;1.10;;;;;10.70;99928.00;;;;9707221;30;20186;-79
2023/03/23 08:49:42;;;;;;;4.13;1.00;;;;;11.00;99929.00;;;;9690534;30;20206;-79
2023/03/23 08:54:59;;;;;;;5.30;1.20;;;;;11.10;99909.00;;;;9695793;30;20318;-79
2023/03/23 09:00:18;;;;;;;6.87;1.93;;;;;11.20;99919.00;;;;9704569;30;20198;-80
2023/03/23 09:05:45;;;;;;;3.03;1.67;;;;;11.60;99924.00;;;;9690138;30;21002;-78
2023/03/23 09:11:02;;;;;;;4.67;1.30;;;;;11.90;99927.00;;;;9710328;30;20202;-79
2023/03/23 09:16:05;;;;;;;6.90;1.17;;;;;12.00;99945.00;;;;9689960;30;20220;-79
2023/03/23 09:21:06;;;;;;;5.30;1.80;;;;;12.00;99945.00;;;;9711618;30;20202;-79
2023/03/23 09:26:07;;;;;;;8.83;2.23;;;;;11.90;99942.00;;;;9699139;30;20200;-79
2023/03/23 09:31:08;;;;;;;2.63;1.27;;;;;12.10;99944.00;;;;9699815;30;20206;-79
2023/03/23 09:36:12;;;;;;;4.50;1.80;;;;;12.10;99934.00;;;;9693618;30;20214;-79
2023/03/23 09:41:44;;;;;;;5.33;1.87;;;;;12.40;99935.00;;;;9662498;30;20773;-78
2023/03/23 09:46:56;;;;;;;3.27;2.10;;;;;13.20;99932.00;;;;9693254;30;20198;-78
2023/03/23 09:52:11;;;;;;;1.53;1.30;;;;;13.80;99929.00;;;;9695644;30;20206;-78
2023/03/23 09:57:40;;;;;;;4.73;1.60;;;;;14.20;99933.00;;;;9713325;30;20209;-78
2023/03/23 10:03:03;;;;;;;2.53;1.30;;;;;14.50;99938.00;;;;9692049;30;20706;-78
2023/03/23 10:08:18;;;;;;;4.73;1.97;;;;;15.00;99944.00;;;;9718594;30;20206;-78
2023/03/23 10:13:35;;;;;;;4.35;1.85;;;;;15.40;99928.00;;;;9729351;30;20218;-78
2023/03/23 10:19:25;;;;;;;5.78;2.15;;;;;15.90;99922.00;;;;9712172;30;20214;-78
2023/03/23 10:24:34;;;;;;;4.30;1.98;;;;;16.00;99926.00;;;;9722818;30;20750;-78
2023/03/23 10:29:43;;;;;;;4.88;1.55;;;;;16.20;99922.00;;;;9739726;30;20214;-78
2023/03/23 10:34:50;;;;;;;2.53;1.55;;;;;16.40;99925.00;;;;9738117;30;20246;-78
2023/03/23 10:39:57;;;;;;;5.65;1.95;;;;;16.70;99942.00;;;;9684763;30;20244;-78
2023/03/23 10:45:17;;;;;;;4.13;1.80;;;;;17.20;99941.00;;;;9726458;30;20253;-77
2023/03/23 10:50:26;;;;;;;5.90;2.00;;;;;17.30;99934.00;;;;9702469;30;20297;-78
2023/03/23 10:55:39;;;;;;;6.68;1.88;;;;;17.40;99929.00;;;;9715017;30;20225;-78
2023/03/23 11:00:44;;;;;;;8.10;2.03;;;;;17.80;99941.00;;;;9728025;30;20214;-78
2023/03/23 11:05:51;;;;;;;9.25;2.45;;;;;17.50;99937.00;;;;9705811;30;20206;-78
2023/03/23 11:10:57;;;;;;;6.35;2.67;;;;;18.10;99931.00;;;;9731048;30;20222;-78
2023/03/23 11:15:59;;;;;;;7.60;2.17;;;;;18.80;99953.00;;;;9733120;30;20215;-76
2023/03/23 11:21:00;;;;;;;7.72;2.55;;;;;18.70;99938.00;;;;9716416;30;20206;-79
2023/03/23 11:26:11;;;;;;;4.57;1.85;;;;;18.60;99912.00;;;;9694388;30;20691;-80
2023/03/23 11:31:13;;;;;;;6.05;2.08;;;;;17.80;99925.00;;;;9725735;30;20211;-82
2023/03/23 11:36:15;;;;;;;7.85;2.20;;;;;17.40;99942.00;;;;9727653;30;20226;-80
2023/03/23 11:41:19;;;;;;;6.45;2.33;;;;;17.20;99924.00;;;;9708655;30;20413;-79
2023/03/23 11:46:32;;;;;;;6.28;2.53;;;;;17.30;99903.00;;;;9720080;30;20195;-80
2023/03/23 11:51:39;;;;;;;5.45;2.20;;;;;19.00;99885.00;;;;9722850;30;20246;-79
2023/03/23 11:56:43;;;;;;;6.88;2.03;;;;;19.40;99887.00;;;;9704802;30;20221;-80
2023/03/23 12:02:10;;;;;;;8.27;2.58;;;;;18.90;99898.00;;;;9723871;30;20684;-79
2023/03/23 12:07:11;;;;;;;3.75;1.70;;;;;18.80;99911.00;;;;9724858;30;20209;-80
2023/03/23 12:12:34;;;;;;;3.88;1.80;;;;;18.80;99895.00;;;;9704681;30;20217;-80
2023/03/23 12:17:51;;;;;;;6.03;1.52;;;;;18.80;99901.00;;;;9698863;30;20198;-80
2023/03/23 12:23:22;;;;;;;8.18;2.28;;;;;19.00;99894.00;;;;9708728;30;20562;-81
2023/03/23 12:28:48;;;;;;;3.60;1.48;;;;;19.50;99867.00;;;;9724672;30;20218;-81
2023/03/23 12:33:55;;;;;;;5.38;1.83;;;;;19.70;99866.00;;;;9717388;30;20301;-81
2023/03/23 12:39:27;;;;;;;8.23;1.80;;;;;20.30;99858.00;;;;9693792;30;20790;-80
2023/03/23 12:44:37;;;;;;;5.40;2.15;;;;;20.10;99859.00;;;;9700402;30;20563;-81
2023/03/23 12:49:47;;;;;;;4.40;1.55;;;;;20.20;99865.00;;;;9671875;30;20214;-81
2023/03/23 12:54:57;;;;;;;7.60;2.67;;;;;20.40;99873.00;;;;9717854;30;20213;-81
2023/03/23 13:00:19;;;;;;;5.78;1.95;;;;;20.30;99889.00;;;;9718398;30;20683;-81
2023/03/23 13:05:23;;;;;;;9.82;2.58;;;;;19.20;99913.00;;;;9691430;30;20575;-80
2023/03/23 13:10:31;;;;;;;7.95;2.20;;;;;17.90;99926.00;;;;9703214;30;20214;-80
2023/03/23 13:15:44;;;;;;;8.88;2.10;;;;;17.50;99933.00;;;;9710074;30;20210;-80
2023/03/23 13:20:55;;;;;;;4.45;1.95;;;;;17.90;99923.00;;;;9694087;30;20218;-80
2023/03/23 13:26:00;;;;;;;6.93;2.30;;;;;17.50;99896.00;;;;9687979;30;20186;-80
2023/03/23 13:31:12;;;;;;;8.10;2.25;;;;;19.70;99866.00;;;;9688778;30;20207;-81
2023/03/23 13:36:14;;;;;;;7.20;1.85;;;;;22.30;99849.00;;;;9705064;30;20220;-82
2023/03/23 13:41:20;;;;;;;6.65;1.80;;;;;22.90;99824.00;;;;9715928;30;20211;-81
2023/03/23 13:46:21;;;;;;;9.75;2.50;;;;;24.60;99831.00;;;;9699434;30;20272;-81
2023/03/23 13:51:31;;;;;;;5.50;1.75;;;;;23.60;99839.00;;;;9710287;30;20630;-81
2023/03/23 13:56:40;;;;;;;7.55;2.00;;;;;20.10;99884.00;;;;9718148;30;20301;-81
2023/03/23 14:01:43;;;;;;;6.53;2.00;;;;;18.70;99875.00;;;;9708485;30;20211;-80
2023/03/23 14:06:47;;;;;;;6.85;1.80;;;;;18.30;99850.00;;;;9711400;30;20565;-79
2023/03/23 14:12:02;;;;;;;5.20;1.98;;;;;20.20;99790.00;;;;9706435;30;20245;-79
2023/03/23 14:17:29;;;;;;;6.35;2.05;;;;;21.00;99829.00;;;;9713553;30;20301;-79
2023/03/23 14:22:36;;;;;;;7.30;2.13;;;;;21.40;99775.00;;;;9708061;30;20711;-80
2023/03/23 14:27:37;;;;;;;9.13;2.15;;;;;24.20;99770.00;;;;9692475;30;20202;-80
2023/03/23 14:32:38;;;;;;;6.60;1.95;;;;;23.40;99812.00;;;;9709802;30;20222;-80
2023/03/23 14:37:40;;;;;;;6.47;2.08;;;;;23.10;99821.00;;;;9704698;30;20214;-80
2023/03/23 14:42:42;;;;;;;8.90;2.40;;;;;20.20;99811.00;;;;9698054;30;20750;-79
2023/03/23 14:47:47;;;;;;;10.88;2.50;;;;;18.50;99812.00;;;;9705444;30;20250;-80
2023/03/23 14:52:48;;;;;;;9.45;2.80;;;;;17.20;99829.00;;;;9722916;30;20238;-79
2023/03/23 14:57:50;;;;;;;11.65;2.90;;;;;16.00;99818.00;;;;9724285;30;20206;-79
2023/03/23 15:02:55;;;;;;;9.57;2.35;;;;;18.70;99785.00;;;;9691279;30;20206;-79
2023/03/23 15:08:03;;;;;;;6.50;2.10;;;;;19.90;99775.00;;;;9692689;30;20299;-80
2023/03/23 15:13:04;;;;;;;5.22;2.22;;;;;18.90;99770.00;;;;9701121;30;20214;-79
2023/03/23 15:18:05;;;;;;;5.78;2.42;;;;;19.70;99773.00;;;;9710201;30;20221;-79
2023/03/23 15:23:07;;;;;;;6.82;2.63;;;;;18.40;99775.00;;;;9691482;30;20570;-79
2023/03/23 15:28:21;;;;;;;8.70;2.45;;;;;17.30;99777.00;;;;9719759;30;20247;-79
2023/03/23 15:33:26;;;;;;;8.60;2.83;;;;;17.80;99792.00;;;;9723610;30;20229;-79
2023/03/23 15:38:33;;;;;;;8.13;2.50;;;;;17.20;99795.00;;;;9712447;30;20229;-79
2023/03/23 15:43:48;;;;;;;8.05;2.58;;;;;17.30;99783.00;;;;9726815;30;20209;-80
2023/03/23 15:48:53;;;;;;;7.70;3.10;;;;;16.80;99788.00;;;;9728778;30;20299;-79
2023/03/23 15:53:55;;;;;;;7.38;2.40;;;;;16.10;99788.00;;;;9728138;30;20301;-80
2023/03/23 15:58:58;;;;;;;6.82;2.70;;;;;15.70;99795.00;;;;9692814;30;20207;-80
2023/03/23 16:04:05;;;;;;;8.63;2.90;;;;;15.30;99793.00;;;;9697566;30;20198;-79
2023/03/23 16:09:14;;;;;;;8.65;2.63;;;;;15.50;99790.00;;;;9719749;30;20266;-80
2023/03/23 16:14:16;;;;;;;7.63;2.60;;;;;15.70;99783.00;;;;9731247;30;20275;-80
2023/03/23 16:19:23;;;;;;;7.13;2.20;;;;;16.00;99782.00;;;;9709766;30;20211;-79
2023/03/23 16:24:25;;;;;;;9.02;2.80;;;;;16.00;99780.00;;;;9706403;30;20286;-80
2023/03/23 16:29:27;;;;;;;12.40;4.03;;;;;16.50;99780.00;;;;9727853;30;20214;-80
2023/03/23 16:34:49;;;;;;;7.05;2.58;;;;;16.60;99775.00;;;;9711445;30;20676;-79
2023/03/23 16:39:51;;;;;;;5.85;2.25;;;;;16.70;99772.00;;;;9690330;30;20235;-80
2023/03/23 16:44:53;;;;;;;8.63;2.65;;;;;16.10;99768.00;;;;9739443;30;20233;-79
2023/03/23 16:49:55;;;;;;;5.53;2.00;;;;;15.60;99779.00;;;;9726081;30;20895;-80
2023/03/23 16:54:57;;;;;;;5.68;2.20;;;;;15.30;99780.00;;;;9740406;30;20240;-80
2023/03/23 16:59:59;;;;;;;10.20;2.30;;;;;15.20;99780.00;;;;9711439;30;20202;-79
2023/03/23 17:05:02;;;;;;;12.55;2.60;;;;;15.10;99779.00;;;;9724937;30;20903;-80
2023/03/23 17:10:06;;;;;;;9.30;2.30;;;;;15.00;99775.00;;;;9754351;30;20278;-80
2023/03/23 17:15:10;;;;;;;11.82;2.50;;;;;14.80;99778.00;;;;9754987;30;20210;-79
2023/03/23 17:20:12;;;;;;;8.33;2.27;;;;;14.70;99760.00;;;;9738196;30;20198;-80
2023/03/23 17:25:14;;;;;;;6.50;2.72;;;;;14.60;99752.00;;;;9724170;30;20214;-79
2023/03/23 17:30:17;;;;;;;9.30;2.50;;;;;14.70;99748.00;;;;9703237;30;20214;-79
2023/03/23 17:35:20;;;;;;;6.63;2.35;;;;;14.60;99740.00;;;;9684931;30;20226;-79
2023/03/23 17:40:22;;;;;;;8.50;2.67;;;;;14.60;99744.00;;;;9711851;30;20214;-80
2023/03/23 17:45:24;;;;;;;7.18;2.13;;;;;14.60;99735.00;;;;9742917;30;20214;-80
2023/03/23 17:50:26;;;;;;;10.63;2.20;;;;;14.60;99737.00;;;;9738922;30;20233;-80
2023/03/23 17:55:28;;;;;;;14.98;2.50;;;;;14.50;99739.00;;;;9710139;30;20223;-79
2023/03/23 18:00:30;;;;;;;9.68;2.88;;;;;14.50;99730.00;;;;9739058;30;20202;-79
2023/03/23 18:05:34;;;;;;;9.13;2.40;;;;;14.50;99728.00;;;;9735949;30;20215;-79
2023/03/23 18:10:39;;;;;;;10.52;3.10;;;;;14.50;99725.00;;;;9732260;30;20213;-79
2023/03/23 18:15:43;;;;;;;13.70;3.25;;;;;14.50;99728.00;;;;9709438;30;20314;-79
2023/03/23 18:20:55;;;;;;;5.70;2.45;;;;;14.50;99710.00;;;;9723603;30;20216;-80
2023/03/23 18:25:57;;;;;;;6.70;2.22;;;;;14.50;99711.00;;;;9702098;30;20257;-80
2023/03/23 18:31:12;;;;;;;10.13;2.40;;;;;14.60;99704.00;;;;9729912;30;20256;-80
2023/03/23 18:36:17;;;;;;;7.53;2.50;;;;;14.50;99709.00;;;;9724069;30;20226;-79
2023/03/23 18:41:19;;;;;;;9.93;2.75;;;;;14.50;99705.00;;;;9728667;30;20265;-80
2023/03/23 18:46:21;;;;;;;7.78;2.83;;;;;14.40;99710.00;;;;9747935;30;20495;-79
2023/03/23 18:51:24;;;;;;;8.07;2.92;;;;;14.00;99700.00;;;;9687024;30;20211;-78
2023/03/23 18:56:27;;;;;;;9.07;2.80;;;;;13.80;99691.00;;;;9708420;30;20269;-79
2023/03/23 19:01:29;;;;;;;11.53;2.80;;;;;13.50;99693.00;;;;9706371;30;20218;-79
2023/03/23 19:06:31;;;;;;;9.93;3.10;;;;;13.30;99693.00;;;;9710914;30;20289;-79
2023/03/23 19:11:34;;;;;;;10.90;3.00;;;;;13.20;99690.00;;;;9742220;30;20788;-79
2023/03/23 19:16:36;;;;;;;8.37;2.47;;;;;13.10;99690.00;;;;9728176;30;20226;-79
2023/03/23 19:21:39;;;;;;;8.30;2.47;;;;;13.10;99687.00;;;;9698385;30;20207;-79
2023/03/23 19:26:43;;;;;;;9.60;3.17;;;;;13.10;99679.00;;;;9692510;30;20211;-79
2023/03/23 19:31:45;;;;;;;8.90;2.13;;;;;13.10;99691.00;;;;9708141;30;20689;-78
2023/03/23 19:36:48;;;;;;;7.50;2.63;;;;;13.20;99665.00;;;;9713869;30;20758;-79
2023/03/23 19:42:04;;;;;;;12.43;2.50;;;;;13.20;99680.00;;;;9715512;30;20221;-78
2023/03/23 19:47:06;;;;;;;6.30;2.57;;;;;13.30;99676.00;;;;9711047;30;20659;-78
2023/03/23 19:52:09;;;;;;;5.43;1.90;;;;;13.30;99676.00;;;;9712377;30;20274;-79
2023/03/23 19:57:17;;;;;;;10.27;2.60;;;;;13.20;99669.00;;;;9713660;30;20321;-79
2023/03/23 20:02:19;;;;;;;4.23;2.50;;;;;13.20;99653.00;;;;9704062;30;20207;-79
2023/03/23 20:07:21;;;;;;;9.00;2.57;;;;;13.30;99653.00;;;;9691816;30;20231;-79
2023/03/23 20:12:27;;;;;;;5.90;2.37;;;;;13.20;99642.00;;;;9699176;30;20206;-79
2023/03/23 20:17:30;;;;;;;4.33;1.93;;;;;13.30;99644.00;;;;9742143;30;20222;-79
2023/03/23 20:22:33;;;;;;;8.70;1.87;;;;;13.20;99637.00;;;;9712187;30;20206;-79
2023/03/23 20:27:35;;;;;;;8.23;2.03;;;;;13.10;99631.00;;;;9741713;30;20230;-79
2023/03/23 20:32:39;;;;;;;3.73;1.63;;;;;12.90;99631.00;;;;9726405;30;20210;-79
2023/03/23 20:37:42;;;;;;;3.87;1.70;;;;;12.70;99634.00;;;;9713710;30;20214;-79
2023/03/23 20:42:44;;;;;;;4.77;1.93;;;;;12.60;99624.00;;;;9727700;30;20242;-79
2023/03/23 20:47:46;;;;;;;4.63;1.77;;;;;12.30;99637.00;;;;9705778;30;20206;-79
2023/03/23 20:52:48;;;;;;;5.70;2.00;;;;;12.10;99633.00;;;;9736941;30;20257;-79
2023/03/23 20:57:50;;;;;;;6.07;2.00;;;;;11.90;99634.00;;;;9728037;30;20198;-79
2023/03/23 21:02:52;;;;;;;5.60;2.27;;;;;11.70;99618.00;;;;9692323;30;20738;-79
2023/03/23 21:07:56;;;;;;;4.20;2.00;;;;;11.60;99617.00;;;;9677640;30;20203;-79
2023/03/23 21:12:59;;;;;;;6.43;2.70;;;;;11.50;99599.00;;;;9670567;30;20210;-80
2023/03/23 21:18:01;;;;;;;5.87;2.00;;;;;11.50;99601.00;;;;9723194;30;20663;-79
2023/03/23 21:23:05;;;;;;;6.17;2.30;;;;;11.40;99581.00;;;;9710645;30;20552;-79
2023/03/23 21:28:07;;;;;;;7.03;2.60;;;;;11.40;99576.00;;;;9700479;30;20285;-79
2023/03/23 21:33:14;;;;;;;5.13;2.13;;;;;11.40;99561.00;;;;9711159;30;20719;-79
2023/03/23 21:38:18;;;;;;;5.43;2.20;;;;;11.30;99551.00;;;;9739702;30;20203;-79
2023/03/23 21:43:26;;;;;;;5.97;2.40;;;;;11.30;99534.00;;;;9712752;30;20213;-79
2023/03/23 21:48:28;;;;;;;6.50;2.30;;;;;11.30;99528.00;;;;9700325;30;20264;-79
2023/03/23 21:53:32;;;;;;;2.50;1.60;;;;;11.30;99525.00;;;;9688723;30;20702;-79
2023/03/23 21:58:35;;;;;;;4.97;2.87;;;;;11.40;99526.00;;;;9709501;30;20210;-79
2023/03/23 22:03:39;;;;;;;5.63;2.30;;;;;11.40;99525.00;;;;9677299;30;20207;-79
2023/03/23 22:08:43;;;;;;;4.00;1.97;;;;;11.50;99495.00;;;;9688438;30;20241;-80
2023/03/23 22:13:47;;;;;;;3.23;1.40;;;;;11.50;99485.00;;;;9734000;30;20841;-79
2023/03/23 22:18:51;;;;;;;4.50;1.90;;;;;11.60;99479.00;;;;9744923;30;20256;-79
2023/03/23 22:23:57;;;;;;;6.73;2.27;;;;;11.60;99472.00;;;;9729615;30;20217;-79
2023/03/23 22:29:00;;;;;;;2.97;1.63;;;;;11.60;99480.00;;;;9704325;30;20269;-79
2023/03/23 22:34:02;;;;;;;3.50;1.70;;;;;11.70;99467.00;;;;9695310;30;20281;-78
2023/03/23 22:39:06;;;;;;;5.73;2.57;;;;;11.70;99475.00;;;;9728612;30;20230;-80
2023/03/23 22:44:16;;;;;;;5.17;2.40;;;;;11.60;99460.00;;;;9759874;30;20202;-79
2023/03/23 22:49:18;;;;;;;3.87;1.93;;;;;11.60;99456.00;;;;9723965;30;20290;-78
2023/03/23 22:54:21;;;;;;;4.07;2.47;;;;;11.50;99447.00;;;;9720310;30;20217;-78
2023/03/23 22:59:23;;;;;;;4.97;1.93;;;;;11.50;99426.00;;;;9742304;30;20440;-78
2023/03/23 23:04:25;;;;;;;5.50;2.53;;;;;11.50;99427.00;;;;9744403;30;20582;-78
2023/03/23 23:09:27;;;;;;;3.43;2.37;;;;;11.60;99419.00;;;;9743188;30;20213;-77
2023/03/23 23:14:29;;;;;;;4.40;2.17;;;;;11.60;99416.00;;;;9741416;30;20215;-78
2023/03/23 23:19:31;;;;;;;3.13;2.40;;;;;11.60;99405.00;;;;9742317;30;20205;-78
2023/03/23 23:24:33;;;;;;;4.80;2.20;;;;;11.60;99397.00;;;;9735801;30;20499;-78
2023/03/23 23:29:35;;;;;;;2.97;2.03;;;;;11.60;99393.00;;;;9709457;30;20202;-78
2023/03/23 23:34:38;;;;;;;5.77;2.30;;;;;11.60;99375.00;;;;9737007;30;20220;-79
2023/03/23 23:39:41;;;;;;;3.60;2.10;;;;;11.60;99381.00;;;;9737740;30;20587;-78
2023/03/23 23:44:45;;;;;;;5.40;2.20;;;;;11.60;99358.00;;;;9742726;30;20264;-78
2023/03/23 23:49:47;;;;;;;3.10;2.10;;;;;11.60;99358.00;;;;9736067;30;20214;-78
2023/03/23 23:54:51;;;;;;;5.23;1.90;;;;;11.60;99343.00;;;;9734116;30;20288;-79
2023/03/23 23:59:53;;;;;;;3.23;1.53;;;;;11.70;99335.00;;;;9727692;30;20202;-78
